Time;durP1;ratioP1;P1;durP2;ratioP2;P2;SDS_P1;SDS_P2;PMS_P1;PMS_P2;Temp;Humidity;BMP_temperature;BMP_pressure;BME280_temperature;BME280_humidity;BME280_pressure;Samples;Min_cycle;Max_cycle;Signal;HPM_P1;HPM_P2
2022/11/02 00:00:26;;;;;;;;;;;13.90;96.40;;;;;;5074554;28;19946;-89
2022/11/02 00:02:52;;;;;;;;;;;13.90;96.40;;;;;;5074474;28;20434;-89
2022/11/02 00:05:22;;;;;;;;;;;14.00;96.40;;;;;;5074776;28;19938;-88
2022/11/02 00:07:48;;;;;;;;;;;14.00;96.30;;;;;;5074406;28;19941;-89
2022/11/02 00:10:13;;;;;;;;;;;14.00;96.30;;;;;;5074381;28;19942;-89
2022/11/02 00:12:39;;;;;;;;;;;13.90;96.30;;;;;;5074566;28;20030;-89
2022/11/02 00:15:05;;;;;;;;;;;14.00;96.40;;;;;;5073726;28;19973;-89
2022/11/02 00:17:31;;;;;;;;;;;14.10;96.30;;;;;;5074223;28;19974;-89
2022/11/02 00:19:57;;;;;;;;;;;14.00;96.30;;;;;;5074229;28;20058;-89
2022/11/02 00:22:23;;;;;;;;;;;14.00;96.30;;;;;;5074180;28;20418;-89
2022/11/02 00:24:48;;;;;;;;;;;14.10;96.40;;;;;;5073126;28;19982;-88
2022/11/02 00:27:14;;;;;;;;;;;14.10;96.30;;;;;;5074024;28;20404;-89
2022/11/02 00:29:39;;;;;;;;;;;14.10;96.40;;;;;;5073869;28;19972;-89
2022/11/02 00:32:05;;;;;;;;;;;14.10;96.50;;;;;;5073991;28;19948;-88
2022/11/02 00:34:30;;;;;;;;;;;14.20;96.40;;;;;;5073916;28;19937;-89
2022/11/02 00:36:56;;;;;;;;;;;14.10;96.40;;;;;;5073833;28;19959;-89
2022/11/02 00:39:21;;;;;;;;;;;14.10;96.30;;;;;;5073594;28;19947;-88
2022/11/02 00:41:47;;;;;;;;;;;14.10;96.30;;;;;;5073782;28;19939;-89
2022/11/02 00:44:12;;;;;;;;;;;14.10;96.40;;;;;;5073746;28;19943;-89
2022/11/02 00:46:38;;;;;;;;;;;14.10;96.40;;;;;;5073491;28;20387;-89
2022/11/02 00:49:03;;;;;;;;;;;14.10;96.40;;;;;;5073677;28;19940;-89
2022/11/02 00:51:29;;;;;;;;;;;14.10;96.40;;;;;;5073475;28;19955;-89
2022/11/02 00:53:54;;;;;;;;;;;14.10;96.40;;;;;;5073557;28;19949;-89
2022/11/02 00:56:20;;;;;;;;;;;14.10;96.50;;;;;;5055531;28;19961;-89
2022/11/02 00:58:45;;;;;;;;;;;14.10;96.60;;;;;;5073765;28;20387;-89
2022/11/02 01:01:11;;;;;;;;;;;14.10;96.60;;;;;;5073312;28;20315;-89
2022/11/02 01:03:36;;;;;;;;;;;14.10;96.60;;;;;;5073438;28;20397;-89
2022/11/02 01:06:12;;;;;;;;;;;14.10;96.80;;;;;;5073439;28;20402;-89
2022/11/02 01:08:38;;;;;;;;;;;14.20;96.80;;;;;;5073354;28;19940;-89
2022/11/02 01:11:11;;;;;;;;;;;14.20;96.90;;;;;;5073337;28;19988;-89
2022/11/02 01:13:37;;;;;;;;;;;14.20;96.90;;;;;;5073244;28;20026;-89
2022/11/02 01:16:03;;;;;;;;;;;14.20;96.90;;;;;;5073232;28;20040;-89
2022/11/02 01:18:28;;;;;;;;;;;14.20;96.90;;;;;;5073281;28;19938;-89
2022/11/02 01:20:57;;;;;;;;;;;14.20;96.90;;;;;;5055234;28;19940;-89
2022/11/02 01:23:23;;;;;;;;;;;14.30;96.90;;;;;;5073448;28;19946;-89
2022/11/02 01:25:49;;;;;;;;;;;14.20;97.00;;;;;;5072916;28;20299;-89
2022/11/02 01:28:14;;;;;;;;;;;14.30;97.10;;;;;;5055100;28;19975;-89
2022/11/02 01:30:40;;;;;;;;;;;14.30;97.20;;;;;;5072918;28;20029;-89
2022/11/02 01:33:05;;;;;;;;;;;14.40;97.10;;;;;;5073056;28;20007;-89
2022/11/02 01:35:31;;;;;;;;;;;14.40;97.10;;;;;;5054568;28;20010;-89
2022/11/02 01:37:56;;;;;;;;;;;14.40;97.10;;;;;;5073052;28;19941;-89
2022/11/02 01:40:22;;;;;;;;;;;14.40;97.10;;;;;;5073022;28;19942;-89
2022/11/02 01:42:48;;;;;;;;;;;14.40;97.00;;;;;;5073479;28;20287;-89
2022/11/02 01:45:13;;;;;;;;;;;14.40;97.10;;;;;;5072949;28;20303;-89
2022/11/02 01:47:40;;;;;;;;;;;14.40;97.10;;;;;;5072649;28;20284;-89
2022/11/02 01:50:11;;;;;;;;;;;14.40;97.10;;;;;;5072877;28;19948;-89
2022/11/02 01:52:37;;;;;;;;;;;14.40;97.10;;;;;;5072669;28;20044;-89
2022/11/02 01:55:06;;;;;;;;;;;14.40;97.10;;;;;;5072821;28;19970;-89
2022/11/02 01:57:34;;;;;;;;;;;14.40;97.10;;;;;;5072863;28;19936;-89
2022/11/02 02:00:05;;;;;;;;;;;14.40;97.00;;;;;;5072770;28;20030;-89
2022/11/02 02:02:31;;;;;;;;;;;14.40;97.10;;;;;;5072863;28;19941;-89
2022/11/02 02:05:08;;;;;;;;;;;14.40;97.00;;;;;;5054810;28;19949;-89
2022/11/02 02:07:35;;;;;;;;;;;14.40;97.00;;;;;;5072582;28;19944;-89
2022/11/02 02:10:01;;;;;;;;;;;14.40;97.00;;;;;;5072722;28;19963;-89
2022/11/02 02:12:27;;;;;;;;;;;14.30;97.00;;;;;;5054833;28;20413;-89
2022/11/02 02:14:52;;;;;;;;;;;14.30;97.10;;;;;;5072608;28;20422;-89
2022/11/02 02:17:37;;;;;;;;;;;14.30;97.10;;;;;;5054627;28;19947;-89
2022/11/02 02:20:15;;;;;;;;;;;14.40;97.20;;;;;;5072936;28;19942;-90
2022/11/02 02:22:40;;;;;;;;;;;14.40;97.10;;;;;;5072612;28;19936;-89
2022/11/02 02:25:22;;;;;;;;;;;14.40;97.10;;;;;;5072639;28;20315;-89
2022/11/02 02:28:14;;;;;;;;;;;14.40;97.00;;;;;;5072550;28;19945;-89
2022/11/02 02:30:45;;;;;;;;;;;14.30;97.00;;;;;;5041386;28;19977;-89
2022/11/02 02:33:13;;;;;;;;;;;14.30;97.10;;;;;;5072543;28;19990;-89
2022/11/02 02:35:41;;;;;;;;;;;14.30;97.10;;;;;;5072411;28;19966;-89
2022/11/02 02:38:13;;;;;;;;;;;14.30;97.10;;;;;;5072797;28;20039;-89
2022/11/02 02:40:58;;;;;;;;;;;14.30;97.00;;;;;;5072483;28;19945;-89
2022/11/02 02:43:28;;;;;;;;;;;14.20;97.10;;;;;;5071830;28;20045;-89
2022/11/02 02:45:57;;;;;;;;;;;14.20;97.00;;;;;;5072379;28;20310;-89
2022/11/02 02:48:23;;;;;;;;;;;14.20;97.10;;;;;;5074382;28;19940;-89
2022/11/02 02:50:50;;;;;;;;;;;14.20;97.00;;;;;;5075871;28;20406;-89
2022/11/02 02:53:19;;;;;;;;;;;14.20;97.00;;;;;;5075853;28;19983;-89
2022/11/02 02:55:46;;;;;;;;;;;14.20;97.00;;;;;;5057782;28;20073;-89
2022/11/02 02:58:21;;;;;;;;;;;14.20;97.00;;;;;;5075560;28;20455;-89
2022/11/02 03:00:46;;;;;;;;;;;14.20;97.00;;;;;;5075785;28;19939;-89
2022/11/02 03:03:16;;;;;;;;;;;14.20;96.90;;;;;;5075739;28;19947;-88
2022/11/02 03:05:41;;;;;;;;;;;14.30;96.90;;;;;;5075317;28;19946;-89
2022/11/02 03:08:09;;;;;;;;;;;14.20;96.90;;;;;;5075664;28;19960;-89
2022/11/02 03:10:52;;;;;;;;;;;14.20;96.90;;;;;;5075619;28;19939;-89
2022/11/02 03:13:36;;;;;;;;;;;14.20;96.90;;;;;;5075515;28;19938;-89
2022/11/02 03:16:18;;;;;;;;;;;14.20;96.90;;;;;;5075440;28;19997;-89
2022/11/02 03:18:48;;;;;;;;;;;14.20;96.90;;;;;;5075462;28;20068;-89
2022/11/02 03:21:25;;;;;;;;;;;14.20;97.00;;;;;;5075413;28;19947;-89
2022/11/02 03:24:03;;;;;;;;;;;14.30;97.00;;;;;;5075343;28;20027;-89
2022/11/02 03:26:29;;;;;;;;;;;14.30;97.00;;;;;;5075104;28;19989;-89
2022/11/02 03:29:03;;;;;;;;;;;14.30;97.00;;;;;;5075043;28;20028;-89
2022/11/02 03:31:41;;;;;;;;;;;14.30;97.00;;;;;;5075491;28;19942;-89
2022/11/02 03:34:25;;;;;;;;;;;14.30;97.00;;;;;;5075144;28;19948;-89
2022/11/02 03:36:53;;;;;;;;;;;14.30;97.00;;;;;;5075064;28;20410;-89
2022/11/02 03:39:51;;;;;;;;;;;14.30;97.10;;;;;;5075092;28;19986;-89
2022/11/02 03:42:19;;;;;;;;;;;14.40;97.10;;;;;;5030385;28;19946;-89
2022/11/02 03:44:46;;;;;;;;;;;14.40;97.00;;;;;;5075015;28;19984;-89
2022/11/02 03:47:13;;;;;;;;;;;14.30;97.00;;;;;;5074772;28;19971;-89
2022/11/02 03:49:40;;;;;;;;;;;14.30;97.00;;;;;;5074306;28;20011;-90
2022/11/02 03:52:08;;;;;;;;;;;14.30;97.00;;;;;;5074562;28;20128;-89
2022/11/02 03:54:46;;;;;;;;;;;14.30;96.90;;;;;;5074724;28;19996;-89
2022/11/02 03:57:16;;;;;;;;;;;14.30;97.00;;;;;;5073927;28;20014;-89
2022/11/02 03:59:43;;;;;;;;;;;14.30;97.10;;;;;;5073770;28;20006;-89
2022/11/02 04:02:09;;;;;;;;;;;14.30;97.20;;;;;;5074602;28;19947;-89
2022/11/02 04:04:34;;;;;;;;;;;14.30;97.10;;;;;;5074559;28;19940;-89
2022/11/02 04:07:00;;;;;;;;;;;14.40;97.10;;;;;;5073626;28;19946;-89
2022/11/02 04:09:25;;;;;;;;;;;14.30;97.10;;;;;;5074425;28;19946;-89
2022/11/02 04:14:38;;;;;;;;;;;14.30;97.10;;;;;;5074406;28;19945;-89
2022/11/02 04:19:48;;;;;;;;;;;14.30;97.10;;;;;;5074233;28;19987;-89
2022/11/02 04:27:42;;;;;;;;;;;14.30;96.90;;;;;;5070437;28;19973;-89
2022/11/02 04:30:07;;;;;;;;;;;14.10;96.80;;;;;;5073803;28;19975;-89
2022/11/02 04:35:24;;;;;;;;;;;14.10;96.90;;;;;;5074159;28;20050;-89
2022/11/02 04:40:33;;;;;;;;;;;14.10;97.00;;;;;;5074202;28;19949;-89
2022/11/02 04:42:59;;;;;;;;;;;14.10;96.90;;;;;;5073825;28;19939;-88
2022/11/02 04:45:24;;;;;;;;;;;14.10;96.90;;;;;;5073753;28;19940;-89
2022/11/02 04:47:50;;;;;;;;;;;14.10;97.10;;;;;;5073747;28;19937;-88
2022/11/02 04:50:15;;;;;;;;;;;14.10;97.10;;;;;;5073663;28;19949;-88
2022/11/02 04:52:41;;;;;;;;;;;14.20;97.10;;;;;;5072767;28;19952;-88
2022/11/02 04:55:07;;;;;;;;;;;14.20;97.20;;;;;;5072629;28;19984;-88
2022/11/02 04:57:32;;;;;;;;;;;14.20;97.30;;;;;;5072305;28;19979;-88
2022/11/02 04:59:58;;;;;;;;;;;14.20;97.30;;;;;;5071686;28;19984;-88
2022/11/02 05:02:24;;;;;;;;;;;14.20;97.30;;;;;;5072404;28;19952;-88
2022/11/02 05:04:49;;;;;;;;;;;14.20;97.30;;;;;;5070460;28;19946;-88
2022/11/02 05:07:15;;;;;;;;;;;14.10;97.30;;;;;;5072530;28;19945;-88
2022/11/02 05:09:43;;;;;;;;;;;14.20;97.30;;;;;;5070005;28;19945;-88
2022/11/02 05:12:08;;;;;;;;;;;14.20;97.40;;;;;;5071424;28;19957;-88
2022/11/02 05:14:34;;;;;;;;;;;14.30;97.40;;;;;;5072977;28;19988;-88
2022/11/02 05:17:00;;;;;;;;;;;14.30;97.30;;;;;;5072237;28;20044;-88
2022/11/02 05:19:25;;;;;;;;;;;14.20;97.20;;;;;;5073305;28;20317;-88
2022/11/02 05:21:51;;;;;;;;;;;14.30;97.20;;;;;;5073159;28;19999;-88
2022/11/02 05:24:16;;;;;;;;;;;14.30;97.10;;;;;;5073128;28;19983;-88
2022/11/02 05:26:42;;;;;;;;;;;14.30;97.10;;;;;;5072873;28;20060;-88
2022/11/02 05:29:08;;;;;;;;;;;14.30;96.90;;;;;;5073074;28;19973;-88
2022/11/02 05:31:33;;;;;;;;;;;14.30;96.80;;;;;;5073106;28;19942;-88
2022/11/02 05:33:59;;;;;;;;;;;14.30;96.60;;;;;;5072894;28;20419;-88
2022/11/02 05:36:24;;;;;;;;;;;14.40;96.50;;;;;;5073018;28;20026;-88
2022/11/02 05:38:53;;;;;;;;;;;14.40;96.30;;;;;;5073043;28;19948;-88
2022/11/02 05:41:19;;;;;;;;;;;14.40;96.20;;;;;;5054977;28;20395;-88
2022/11/02 05:43:44;;;;;;;;;;;14.40;96.00;;;;;;5072950;28;19985;-88
2022/11/02 05:46:10;;;;;;;;;;;14.40;96.20;;;;;;5073012;28;20465;-88
2022/11/02 05:48:36;;;;;;;;;;;14.30;96.40;;;;;;5072947;28;20119;-88
2022/11/02 05:51:02;;;;;;;;;;;14.60;96.50;;;;;;5072796;28;20488;-88
2022/11/02 05:53:32;;;;;;;;;;;14.70;96.40;;;;;;5072850;28;20030;-88
2022/11/02 05:56:02;;;;;;;;;;;14.70;96.40;;;;;;5069414;28;20061;-87
2022/11/02 05:58:27;;;;;;;;;;;14.80;96.40;;;;;;5070399;28;19951;-89
2022/11/02 06:00:53;;;;;;;;;;;14.80;96.40;;;;;;5072423;28;20045;-88
2022/11/02 06:03:19;;;;;;;;;;;14.80;96.40;;;;;;5072728;28;19941;-88
2022/11/02 06:05:44;;;;;;;;;;;14.80;96.30;;;;;;5071951;28;20004;-88
2022/11/02 06:08:10;;;;;;;;;;;14.60;95.70;;;;;;5071823;28;20330;-88
2022/11/02 06:10:36;;;;;;;;;;;14.50;96.00;;;;;;5072707;28;20319;-88
2022/11/02 06:13:02;;;;;;;;;;;14.50;96.10;;;;;;5071913;28;20046;-89
2022/11/02 06:15:29;;;;;;;;;;;14.50;96.30;;;;;;5071947;28;19961;-89
2022/11/02 06:17:55;;;;;;;;;;;14.70;96.40;;;;;;5072719;28;19942;-88
2022/11/02 06:20:20;;;;;;;;;;;14.90;96.40;;;;;;5072409;28;20304;-89
2022/11/02 06:22:46;;;;;;;;;;;14.90;96.30;;;;;;5074480;28;19952;-88
2022/11/02 06:25:12;;;;;;;;;;;14.80;95.80;;;;;;5076459;28;20030;-88
2022/11/02 06:27:38;;;;;;;;;;;14.70;95.80;;;;;;5076429;28;20034;-88
2022/11/02 06:30:04;;;;;;;;;;;14.60;95.50;;;;;;5095361;22;19988;-87
2022/11/02 06:32:30;;;;;;;;;;;14.50;95.50;;;;;;5093846;28;19948;-88
2022/11/02 06:34:55;;;;;;;;;;;14.50;95.60;;;;;;5088172;28;19952;-88
2022/11/02 06:37:21;;;;;;;;;;;14.50;95.60;;;;;;5087706;28;19962;-88
2022/11/02 06:39:47;;;;;;;;;;;14.50;95.80;;;;;;5086756;28;19953;-88
2022/11/02 06:42:13;;;;;;;;;;;14.50;95.90;;;;;;5092596;28;19950;-88
2022/11/02 06:44:39;;;;;;;;;;;14.70;95.90;;;;;;5094334;28;19952;-88
2022/11/02 06:47:04;;;;;;;;;;;14.90;95.80;;;;;;5096231;28;19944;-88
2022/11/02 06:49:30;;;;;;;;;;;15.00;95.70;;;;;;5093987;28;20403;-87
2022/11/02 06:51:55;;;;;;;;;;;15.10;95.60;;;;;;5082237;28;20299;-88
2022/11/02 06:54:21;;;;;;;;;;;15.30;95.50;;;;;;5065329;28;20045;-88
2022/11/02 06:56:46;;;;;;;;;;;15.40;95.20;;;;;;5058182;28;20423;-88
2022/11/02 06:59:12;;;;;;;;;;;15.40;95.10;;;;;;5061896;28;19947;-88
2022/11/02 07:01:37;;;;;;;;;;;15.30;94.90;;;;;;5058970;28;19947;-88
2022/11/02 07:04:03;;;;;;;;;;;15.20;94.50;;;;;;5055667;28;19978;-87
2022/11/02 07:06:29;;;;;;;;;;;15.00;94.10;;;;;;5056314;28;19946;-88
2022/11/02 07:08:54;;;;;;;;;;;14.90;94.30;;;;;;5055978;28;20031;-88
2022/11/02 07:11:20;;;;;;;;;;;14.80;94.70;;;;;;5061038;28;20027;-88
2022/11/02 07:13:45;;;;;;;;;;;14.90;95.00;;;;;;5063884;28;19942;-88
2022/11/02 07:16:11;;;;;;;;;;;15.10;95.00;;;;;;5059249;28;19983;-88
2022/11/02 07:18:36;;;;;;;;;;;15.10;94.80;;;;;;5061321;28;19951;-88
2022/11/02 07:21:02;;;;;;;;;;;15.20;94.90;;;;;;5062712;28;19944;-89
2022/11/02 07:23:27;;;;;;;;;;;15.30;94.90;;;;;;5060845;28;19945;-89
2022/11/02 07:25:53;;;;;;;;;;;15.50;94.90;;;;;;5056610;28;20413;-89
2022/11/02 07:28:19;;;;;;;;;;;15.60;94.70;;;;;;5074039;28;19945;-89
2022/11/02 07:30:44;;;;;;;;;;;15.70;94.70;;;;;;5075104;28;20010;-88
2022/11/02 07:33:10;;;;;;;;;;;15.90;94.40;;;;;;5057835;28;19950;-88
2022/11/02 07:35:36;;;;;;;;;;;16.00;93.80;;;;;;5067369;28;19967;-88
2022/11/02 07:38:02;;;;;;;;;;;16.10;93.20;;;;;;5060860;28;19971;-88
2022/11/02 07:40:29;;;;;;;;;;;16.10;92.70;;;;;;5073289;28;19951;-88
2022/11/02 07:42:55;;;;;;;;;;;16.20;92.30;;;;;;5055127;28;19978;-88
2022/11/02 07:45:21;;;;;;;;;;;16.20;91.70;;;;;;5065374;28;19946;-88
2022/11/02 07:47:47;;;;;;;;;;;16.30;91.40;;;;;;5063185;28;20370;-88
2022/11/02 07:50:13;;;;;;;;;;;16.30;91.30;;;;;;5050928;28;19941;-88
2022/11/02 07:52:42;;;;;;;;;;;16.20;90.80;;;;;;5062024;28;19959;-88
2022/11/02 07:55:08;;;;;;;;;;;16.00;91.10;;;;;;5056093;28;19949;-88
2022/11/02 07:57:33;;;;;;;;;;;15.90;91.60;;;;;;5058844;28;19943;-88
2022/11/02 07:59:59;;;;;;;;;;;16.00;92.10;;;;;;5062161;28;20032;-88
2022/11/02 08:02:25;;;;;;;;;;;16.00;92.30;;;;;;5054631;28;20045;-88
2022/11/02 08:04:50;;;;;;;;;;;15.80;92.40;;;;;;5063981;28;19955;-88
2022/11/02 08:07:16;;;;;;;;;;;15.80;92.50;;;;;;5066822;28;20300;-88
2022/11/02 08:09:41;;;;;;;;;;;15.80;92.70;;;;;;5054407;28;19939;-88
2022/11/02 08:12:07;;;;;;;;;;;15.90;92.50;;;;;;5058414;28;19943;-88
2022/11/02 08:14:32;;;;;;;;;;;15.90;92.20;;;;;;5059439;28;19946;-88
2022/11/02 08:16:58;;;;;;;;;;;16.00;92.20;;;;;;5056774;28;19987;-89
2022/11/02 08:19:23;;;;;;;;;;;16.10;92.10;;;;;;5057628;28;19953;-89
2022/11/02 08:21:49;;;;;;;;;;;16.20;91.80;;;;;;5058271;28;19952;-88
2022/11/02 08:24:14;;;;;;;;;;;16.20;91.80;;;;;;5059285;28;19947;-88
2022/11/02 08:26:40;;;;;;;;;;;16.10;91.90;;;;;;5060085;28;20044;-88
2022/11/02 08:29:05;;;;;;;;;;;16.00;92.20;;;;;;5058319;28;20341;-88
2022/11/02 08:31:31;;;;;;;;;;;16.00;92.50;;;;;;5068553;28;20407;-88
2022/11/02 08:33:57;;;;;;;;;;;15.80;93.00;;;;;;5059887;28;20019;-88
2022/11/02 08:36:23;;;;;;;;;;;15.80;93.40;;;;;;5060416;28;19962;-89
2022/11/02 08:38:48;;;;;;;;;;;15.80;93.50;;;;;;5054098;28;19950;-88
2022/11/02 08:41:14;;;;;;;;;;;15.80;93.50;;;;;;5040812;28;19944;-88
2022/11/02 08:43:39;;;;;;;;;;;15.80;93.30;;;;;;5056309;28;19968;-88
2022/11/02 08:46:05;;;;;;;;;;;15.80;92.90;;;;;;5053601;28;20407;-88
2022/11/02 08:48:31;;;;;;;;;;;15.90;92.90;;;;;;5061331;28;19987;-88
2022/11/02 08:50:56;;;;;;;;;;;16.00;92.90;;;;;;5067230;28;20024;-88
2022/11/02 08:53:22;;;;;;;;;;;16.00;92.60;;;;;;5078657;28;19941;-88
2022/11/02 08:55:47;;;;;;;;;;;16.00;92.50;;;;;;5075950;28;19962;-88
2022/11/02 08:58:13;;;;;;;;;;;16.10;92.30;;;;;;5058569;28;19950;-88
2022/11/02 09:00:38;;;;;;;;;;;16.10;92.30;;;;;;5063582;28;19944;-88
2022/11/02 09:03:08;;;;;;;;;;;16.10;92.10;;;;;;5060855;28;19954;-88
2022/11/02 09:05:36;;;;;;;;;;;16.20;92.30;;;;;;5055631;28;21064;-88
2022/11/02 09:08:03;;;;;;;;;;;16.20;92.20;;;;;;5063066;28;19949;-88
2022/11/02 09:10:30;;;;;;;;;;;16.20;92.20;;;;;;5059692;28;20454;-88
2022/11/02 09:12:57;;;;;;;;;;;16.20;92.00;;;;;;5063514;28;20422;-88
2022/11/02 09:15:22;;;;;;;;;;;16.30;91.80;;;;;;5060211;28;19997;-88
2022/11/02 09:17:48;;;;;;;;;;;16.40;92.00;;;;;;5074700;28;19945;-88
2022/11/02 09:20:17;;;;;;;;;;;16.40;91.70;;;;;;5067726;28;19943;-88
2022/11/02 09:22:43;;;;;;;;;;;16.50;91.90;;;;;;5061980;28;19947;-89
2022/11/02 09:25:09;;;;;;;;;;;16.60;91.80;;;;;;5058002;28;20359;-89
2022/11/02 09:27:34;;;;;;;;;;;16.80;91.20;;;;;;5078704;28;19954;-89
2022/11/02 09:30:00;;;;;;;;;;;16.80;90.40;;;;;;5061340;28;19980;-88
2022/11/02 09:32:26;;;;;;;;;;;16.70;90.80;;;;;;5060390;28;19995;-88
2022/11/02 09:34:51;;;;;;;;;;;16.70;90.60;;;;;;5060938;28;20044;-88
2022/11/02 09:37:17;;;;;;;;;;;16.90;90.60;;;;;;5063111;28;19965;-88
2022/11/02 09:39:42;;;;;;;;;;;17.00;90.30;;;;;;5061966;28;19949;-88
2022/11/02 09:42:20;;;;;;;;;;;17.20;89.30;;;;;;5058778;28;19950;-89
2022/11/02 09:44:53;;;;;;;;;;;17.30;89.70;;;;;;5061952;28;19949;-89
2022/11/02 09:47:20;;;;;;;;;;;17.30;88.40;;;;;;5083649;28;20414;-88
2022/11/02 09:49:46;;;;;;;;;;;17.20;89.10;;;;;;5057596;28;19940;-88
2022/11/02 09:52:14;;;;;;;;;;;17.00;89.10;;;;;;5057079;28;20250;-88
2022/11/02 09:54:46;;;;;;;;;;;16.90;89.20;;;;;;5072624;28;19988;-88
2022/11/02 09:57:32;;;;;;;;;;;17.00;89.40;;;;;;5081935;28;20055;-88
2022/11/02 09:59:58;;;;;;;;;;;17.20;89.20;;;;;;5066378;28;19955;-88
2022/11/02 10:02:49;;;;;;;;;;;17.60;88.30;;;;;;5051495;28;20356;-88
2022/11/02 10:05:19;;;;;;;;;;;17.70;88.10;;;;;;5063095;28;19940;-89
2022/11/02 10:07:57;;;;;;;;;;;18.10;87.10;;;;;;5063865;28;19998;-89
2022/11/02 10:10:30;;;;;;;;;;;18.30;86.40;;;;;;5080935;28;19996;-89
2022/11/02 10:12:58;;;;;;;;;;;18.40;84.40;;;;;;5055521;28;19951;-89
2022/11/02 10:15:31;;;;;;;;;;;18.30;84.70;;;;;;5059041;28;20358;-89
2022/11/02 10:17:57;;;;;;;;;;;18.30;83.80;;;;;;5080068;28;20386;-89
2022/11/02 10:20:44;;;;;;;;;;;18.60;84.10;;;;;;5076326;28;20047;-89
2022/11/02 10:23:15;;;;;;;;;;;18.60;82.70;;;;;;5057933;28;19987;-89
2022/11/02 10:25:40;;;;;;;;;;;18.50;83.80;;;;;;5060164;28;19947;-88
2022/11/02 10:28:13;;;;;;;;;;;18.40;83.60;;;;;;5061758;28;19971;-88
2022/11/02 10:30:39;;;;;;;;;;;18.30;84.50;;;;;;5060275;28;20061;-88
2022/11/02 10:33:11;;;;;;;;;;;18.30;83.30;;;;;;5061303;28;19944;-88
2022/11/02 10:35:45;;;;;;;;;;;18.40;82.60;;;;;;5064757;28;20091;-88
2022/11/02 10:38:23;;;;;;;;;;;18.50;82.00;;;;;;5067594;28;19946;-88
2022/11/02 10:41:11;;;;;;;;;;;18.80;82.20;;;;;;5063914;28;19940;-88
2022/11/02 10:43:51;;;;;;;;;;;18.80;81.60;;;;;;5067040;28;19951;-88
2022/11/02 10:46:25;;;;;;;;;;;18.90;80.90;;;;;;5071684;28;19949;-89
2022/11/02 10:48:51;;;;;;;;;;;19.10;81.00;;;;;;5066848;28;20407;-89
2022/11/02 10:51:17;;;;;;;;;;;19.50;80.40;;;;;;5059236;28;20056;-89
2022/11/02 10:53:46;;;;;;;;;;;19.80;78.00;;;;;;5066198;28;19979;-89
2022/11/02 10:56:21;;;;;;;;;;;19.70;77.30;;;;;;5044477;28;20062;-89
2022/11/02 10:58:54;;;;;;;;;;;19.70;77.80;;;;;;5066179;28;19956;-89
2022/11/02 11:01:20;;;;;;;;;;;19.80;77.80;;;;;;5064460;28;20451;-89
2022/11/02 11:03:56;;;;;;;;;;;20.00;77.20;;;;;;5076567;28;19949;-89
2022/11/02 11:06:22;;;;;;;;;;;20.10;76.80;;;;;;5066773;28;19937;-89
2022/11/02 11:08:50;;;;;;;;;;;20.20;76.00;;;;;;5074685;28;19942;-89
2022/11/02 11:11:18;;;;;;;;;;;19.80;77.20;;;;;;5073696;28;19946;-89
2022/11/02 11:13:54;;;;;;;;;;;19.90;77.40;;;;;;5075842;28;19946;-90
2022/11/02 11:16:29;;;;;;;;;;;20.10;76.60;;;;;;5067884;28;19965;-89
2022/11/02 11:18:54;;;;;;;;;;;19.80;76.70;;;;;;5063258;28;19946;-89
2022/11/02 11:21:20;;;;;;;;;;;19.80;77.40;;;;;;5074346;28;20078;-89
2022/11/02 11:23:46;;;;;;;;;;;19.70;77.40;;;;;;5075426;28;19985;-89
2022/11/02 11:26:25;;;;;;;;;;;19.70;77.40;;;;;;5068285;28;19950;-89
2022/11/02 11:28:54;;;;;;;;;;;19.60;78.40;;;;;;5037277;28;20503;-89
2022/11/02 11:31:21;;;;;;;;;;;19.30;78.70;;;;;;5057855;28;20510;-89
2022/11/02 11:33:46;;;;;;;;;;;19.20;79.10;;;;;;5052018;28;20079;-89
2022/11/02 11:36:19;;;;;;;;;;;19.10;79.20;;;;;;5058028;28;20067;-89
2022/11/02 11:38:45;;;;;;;;;;;19.00;79.50;;;;;;5075157;28;19988;-89
2022/11/02 11:41:11;;;;;;;;;;;19.10;79.70;;;;;;5075075;28;19987;-89
2022/11/02 11:43:39;;;;;;;;;;;19.10;79.80;;;;;;5073063;28;20017;-89
2022/11/02 11:46:07;;;;;;;;;;;19.00;79.90;;;;;;5075040;28;20034;-89
2022/11/02 11:48:34;;;;;;;;;;;19.10;79.60;;;;;;5073283;28;19991;-89
2022/11/02 11:51:01;;;;;;;;;;;19.10;79.40;;;;;;5074736;28;20308;-89
2022/11/02 11:53:27;;;;;;;;;;;19.20;79.30;;;;;;5073536;28;19946;-89
2022/11/02 11:55:54;;;;;;;;;;;19.20;79.40;;;;;;5074727;28;19958;-89
2022/11/02 11:58:21;;;;;;;;;;;19.30;79.50;;;;;;5074794;28;19984;-88
2022/11/02 12:01:04;;;;;;;;;;;19.20;79.50;;;;;;5056794;28;19993;-88
2022/11/02 12:03:29;;;;;;;;;;;19.00;80.00;;;;;;5069534;28;19956;-89
2022/11/02 12:06:13;;;;;;;;;;;19.00;80.00;;;;;;5070717;28;19943;-89
2022/11/02 12:08:45;;;;;;;;;;;19.00;80.20;;;;;;5054889;28;20350;-89
2022/11/02 12:11:26;;;;;;;;;;;18.90;80.30;;;;;;5074438;28;19937;-90
2022/11/02 12:14:04;;;;;;;;;;;19.00;80.50;;;;;;5073192;28;19943;-89
2022/11/02 12:16:43;;;;;;;;;;;18.80;81.50;;;;;;5074344;28;19961;-89
2022/11/02 12:19:29;;;;;;;;;;;18.70;81.90;;;;;;5072242;28;19987;-89
2022/11/02 12:22:06;;;;;;;;;;;18.60;81.90;;;;;;5074171;28;19937;-89
2022/11/02 12:25:01;;;;;;;;;;;18.50;82.50;;;;;;5072438;28;19973;-88
2022/11/02 12:27:33;;;;;;;;;;;18.60;82.20;;;;;;5052449;28;20061;-88
2022/11/02 12:30:28;;;;;;;;;;;18.60;82.10;;;;;;5071952;28;19981;-88
2022/11/02 12:33:05;;;;;;;;;;;18.80;82.00;;;;;;5036835;28;20406;-88
2022/11/02 12:35:40;;;;;;;;;;;18.80;81.60;;;;;;5063321;28;19962;-88
2022/11/02 12:38:14;;;;;;;;;;;18.90;81.40;;;;;;5060529;28;19985;-88
2022/11/02 12:40:58;;;;;;;;;;;18.90;81.30;;;;;;5069929;28;20359;-88
2022/11/02 12:43:39;;;;;;;;;;;18.90;81.40;;;;;;5058622;28;19955;-89
2022/11/02 12:46:25;;;;;;;;;;;18.80;81.10;;;;;;5080434;28;20338;-89
2022/11/02 12:49:09;;;;;;;;;;;18.80;81.60;;;;;;5051009;28;19954;-89
2022/11/02 12:51:43;;;;;;;;;;;18.70;82.00;;;;;;5071532;28;19951;-88
2022/11/02 12:54:18;;;;;;;;;;;18.70;82.00;;;;;;5060995;28;19951;-88
2022/11/02 12:56:48;;;;;;;;;;;18.80;82.20;;;;;;5068039;28;20050;-89
2022/11/02 12:59:17;;;;;;;;;;;18.80;81.50;;;;;;5061455;28;19967;-89
2022/11/02 13:01:45;;;;;;;;;;;18.80;82.00;;;;;;5057092;28;20419;-89
2022/11/02 13:04:23;;;;;;;;;;;18.80;82.00;;;;;;5067605;28;20348;-89
2022/11/02 13:06:50;;;;;;;;;;;18.90;82.40;;;;;;5066309;28;20330;-89
2022/11/02 13:09:48;;;;;;;;;;;18.80;82.40;;;;;;5062171;28;19962;-89
2022/11/02 13:12:15;;;;;;;;;;;18.60;82.80;;;;;;5002354;28;20445;-89
2022/11/02 13:14:42;;;;;;;;;;;18.50;83.50;;;;;;5067255;28;19990;-88
2022/11/02 13:17:15;;;;;;;;;;;18.40;83.20;;;;;;5061601;28;19961;-89
2022/11/02 13:19:54;;;;;;;;;;;18.50;83.00;;;;;;5073547;28;19950;-89
2022/11/02 13:22:23;;;;;;;;;;;18.50;83.00;;;;;;5065621;28;19939;-89
2022/11/02 13:24:51;;;;;;;;;;;18.50;83.40;;;;;;5068098;28;20450;-88
2022/11/02 13:27:28;;;;;;;;;;;18.60;83.60;;;;;;5074013;28;20038;-89
2022/11/02 13:29:56;;;;;;;;;;;18.60;83.50;;;;;;5065684;28;20475;-89
2022/11/02 13:32:22;;;;;;;;;;;18.60;83.40;;;;;;5064741;28;19942;-89
2022/11/02 13:34:49;;;;;;;;;;;18.50;83.40;;;;;;5059088;28;19944;-89
2022/11/02 13:37:26;;;;;;;;;;;18.40;84.20;;;;;;5067432;28;20423;-88
2022/11/02 13:39:57;;;;;;;;;;;18.30;84.10;;;;;;5053125;28;19993;-89
2022/11/02 13:42:31;;;;;;;;;;;18.40;84.10;;;;;;5055027;28;19988;-89
2022/11/02 13:45:05;;;;;;;;;;;18.40;84.20;;;;;;5066779;28;20035;-89
2022/11/02 13:47:30;;;;;;;;;;;18.30;84.40;;;;;;5093185;28;19942;-88
2022/11/02 13:49:56;;;;;;;;;;;18.20;84.70;;;;;;5075392;28;19958;-89
2022/11/02 13:52:45;;;;;;;;;;;18.10;85.00;;;;;;5056528;28;19970;-89
2022/11/02 13:55:16;;;;;;;;;;;18.10;85.60;;;;;;5044392;28;20398;-89
2022/11/02 13:57:43;;;;;;;;;;;18.00;85.50;;;;;;5056069;28;20114;-89
2022/11/02 14:00:29;;;;;;;;;;;18.00;85.50;;;;;;5058071;28;20410;-89
2022/11/02 14:03:10;;;;;;;;;;;18.00;85.70;;;;;;5065226;28;19942;-88
2022/11/02 14:05:40;;;;;;;;;;;17.90;85.80;;;;;;5065768;28;20006;-89
2022/11/02 14:08:15;;;;;;;;;;;17.80;86.00;;;;;;5047022;28;19941;-89
2022/11/02 14:10:41;;;;;;;;;;;17.80;86.50;;;;;;5063112;28;19944;-89
2022/11/02 14:13:11;;;;;;;;;;;17.80;86.70;;;;;;5059165;28;19943;-88
2022/11/02 14:15:41;;;;;;;;;;;17.80;86.50;;;;;;5043018;28;19944;-90
2022/11/02 14:18:10;;;;;;;;;;;17.80;86.80;;;;;;5060566;28;20029;-89
2022/11/02 14:20:38;;;;;;;;;;;17.80;86.90;;;;;;5057543;28;19949;-89
2022/11/02 14:23:10;;;;;;;;;;;17.70;86.90;;;;;;5064459;28;20002;-88
2022/11/02 14:25:54;;;;;;;;;;;17.70;87.00;;;;;;5056470;28;20420;-89
2022/11/02 14:28:20;;;;;;;;;;;17.70;87.40;;;;;;5055253;28;20456;-88
2022/11/02 14:30:47;;;;;;;;;;;17.70;87.30;;;;;;5112050;22;19973;-89
2022/11/02 14:33:23;;;;;;;;;;;17.70;87.40;;;;;;5106432;28;19942;-88
2022/11/02 14:35:54;;;;;;;;;;;17.60;87.60;;;;;;5104830;28;19962;-87
2022/11/02 14:38:27;;;;;;;;;;;17.50;88.10;;;;;;5109369;28;20039;-87
2022/11/02 14:40:55;;;;;;;;;;;17.40;88.30;;;;;;5111195;28;19945;-89
2022/11/02 14:43:37;;;;;;;;;;;17.30;88.70;;;;;;5107878;28;19943;-88